Weather History for Bad Axe, MI

Change the Weather History Date:

Friday, October 19, 2012

  Actual Average (KP58) Record (KP58)
Temperature  
Mean Temperature 50 °F -  
Max Temperature 56 °F 56 °F 72 °F (2000)
Min Temperature 45 °F 42 °F 35 °F (2002)
Degree Days  
Heating Degree Days 14    
Moisture  
Dew Point 44 °F    
Average Humidity 81    
Maximum Humidity 97    
Minimum Humidity 58    
Precipitation  
Precipitation 0.00 in - - ()
Sea Level Pressure  
Sea Level Pressure 29.61 in    
Wind  
Wind Speed 7 mph (SSE)    
Max Wind Speed 20 mph    
Max Gust Speed 25 mph    
Visibility 10 miles    
Events Rain    
Averages and records for this station are not official NWS values.
T = Trace of Precipitation, MM = Missing Value Source: NWS Daily Summary

Daily Weather History Graph

Daily Weather History Graph

Search for Another Location

Airport:

Trip Planner

Search our weather history database for the weather conditions in past years. The results will help you decide how hot, cold, wet, or windy it might be!

Date:

Astronomy

Oct. 19, 2012 Rise Set
Actual Time 7:51 AM EDT 6:41 PM EDT
Civil Twilight 7:22 AM EDT 7:10 PM EDT
Nautical Twilight 6:49 AM EDT 7:43 PM EDT
Astronomical Twilight 6:15 AM EDT 8:16 PM EDT
Moon 12:40 PM EDT (10/19) 10:11 PM EDT (10/19)
Length of Visible Light 11h 47m
Length of Day
10h 49m
Waxing Crescent, 23% of the Moon is Illuminated
Oct 19
Waxing Crescent
Oct 21
First Quarter
Oct 29
Full
Nov 6
Last Quarter
Nov 13
New

Hourly Weather History & Observations

Time (EDT) Temp. Windchill Dew Point Humidity Pressure Visibility Wind Dir Wind Speed Gust Speed Precip Events Conditions
12:13 AM 49.6 °F - 40.3 °F 70% 29.67 in 10.0 mi SSE 6.9 mph - N/A   Scattered Clouds
12:33 AM 49.1 °F - 40.6 °F 73% 29.66 in 10.0 mi SSE 8.1 mph - N/A   Mostly Cloudy
12:53 AM 48.9 °F - 40.6 °F 73% 29.66 in 10.0 mi SSE 6.9 mph - N/A   Scattered Clouds
1:13 AM 49.1 °F - 40.3 °F 72% 29.66 in 10.0 mi SSE 8.1 mph - N/A   Scattered Clouds
1:34 AM 49.1 °F - 39.7 °F 70% 29.66 in 10.0 mi SSE 10.4 mph - N/A   Clear
1:53 AM 49.1 °F - 39.4 °F 69% 29.66 in 10.0 mi SSE 6.9 mph - N/A   Clear
2:13 AM 48.6 °F - 38.8 °F 69% 29.65 in 10.0 mi SSE 5.8 mph - N/A   Clear
2:34 AM 48.0 °F - 39.2 °F 72% 29.66 in 10.0 mi SSE 5.8 mph - N/A   Clear
2:53 AM 47.7 °F - 39.4 °F 73% 29.66 in 10.0 mi SSE 3.5 mph - N/A   Mostly Cloudy
3:13 AM 48.4 °F - 39.0 °F 70% 29.65 in 10.0 mi SE 3.5 mph - N/A   Mostly Cloudy
3:34 AM 47.5 °F - 39.2 °F 73% 29.65 in 10.0 mi Calm Calm - N/A   Overcast
3:53 AM 48.0 °F - 40.1 °F 74% 29.64 in 10.0 mi Calm Calm - N/A   Overcast
4:13 AM 48.6 °F - 42.3 °F 79% 29.64 in 10.0 mi SE 4.6 mph - N/A   Overcast
4:34 AM 49.5 °F - 44.4 °F 83% 29.64 in 10.0 mi SE 6.9 mph - N/A   Overcast
4:53 AM 50.0 °F - 45.5 °F 85% 29.64 in 10.0 mi SE 4.6 mph - N/A   Overcast
5:13 AM 50.2 °F - 46.4 °F 87% 29.64 in 10.0 mi SE 5.8 mph - N/A   Overcast
5:34 AM 49.8 °F - 46.8 °F 89% 29.63 in 10.0 mi SE 6.9 mph - N/A   Scattered Clouds
5:53 AM 49.6 °F - 46.8 °F 90% 29.63 in 10.0 mi SE 5.8 mph - N/A   Scattered Clouds
6:13 AM 49.5 °F - 46.9 °F 91% 29.63 in 10.0 mi SE 9.2 mph - N/A   Clear
6:34 AM 49.5 °F - 46.9 °F 91% 29.63 in 10.0 mi SE 6.9 mph - N/A   Clear
6:53 AM 50.0 °F - 47.3 °F 90% 29.63 in 10.0 mi SE 6.9 mph - N/A   Mostly Cloudy
7:14 AM 50.0 °F - 47.1 °F 90% 29.63 in 10.0 mi SE 6.9 mph - N/A   Mostly Cloudy
7:34 AM 50.0 °F - 47.3 °F 90% 29.63 in 10.0 mi SE 5.8 mph - N/A   Overcast
7:53 AM 50.0 °F - 47.3 °F 90% 29.63 in 10.0 mi SE 4.6 mph - N/A   Overcast
8:14 AM 50.4 °F - 47.5 °F 90% 29.63 in 10.0 mi SE 5.8 mph - N/A   Overcast
8:34 AM 50.7 °F - 47.7 °F 89% 29.64 in 10.0 mi South 5.8 mph - N/A   Overcast
8:53 AM 50.9 °F - 47.8 °F 89% 29.63 in 10.0 mi SE 3.5 mph - N/A   Overcast
9:14 AM 50.9 °F - 48.0 °F 90% 29.63 in 10.0 mi SSE 3.5 mph - N/A   Overcast
9:34 AM 51.8 °F - 48.9 °F 90% 29.63 in 10.0 mi ESE 4.6 mph - N/A   Mostly Cloudy
9:53 AM 52.0 °F - 48.7 °F 89% 29.63 in 10.0 mi SE 6.9 mph - N/A   Mostly Cloudy
10:14 AM 52.7 °F - 48.6 °F 86% 29.63 in 10.0 mi SE 6.9 mph - N/A Rain Light Rain
10:34 AM 52.7 °F - 48.4 °F 85% 29.62 in 10.0 mi SE 6.9 mph 19.6 mph N/A Rain Rain
10:53 AM 52.7 °F - 46.9 °F 81% 29.62 in 10.0 mi SSE 11.5 mph 18.4 mph N/A Rain Light Rain
11:14 AM 50.0 °F - 46.9 °F 89% 29.63 in 4.0 mi South 16.1 mph 20.7 mph N/A Rain Heavy Rain
11:34 AM 47.1 °F - 44.2 °F 90% 29.63 in 1.8 mi SSE 8.1 mph 20.7 mph N/A Rain Rain
11:54 AM 48.4 °F - 46.0 °F 92% 29.62 in 10.0 mi SE 5.8 mph - N/A Rain Light Rain
12:13 PM 51.1 °F - 48.9 °F 92% 29.61 in 10.0 mi SE 6.9 mph - N/A   Mostly Cloudy
12:34 PM 50.7 °F - 46.0 °F 84% 29.61 in 10.0 mi SE 9.2 mph 16.1 mph N/A   Mostly Cloudy
12:54 PM 51.6 °F - 46.6 °F 83% 29.60 in 10.0 mi SE 8.1 mph - N/A   Overcast
1:13 PM 52.7 °F - 46.9 °F 81% 29.59 in 10.0 mi SE 5.8 mph - N/A   Mostly Cloudy
1:34 PM 54.3 °F - 48.2 °F 80% 29.58 in 10.0 mi SE 9.2 mph - N/A   Mostly Cloudy
1:54 PM 55.6 °F - 47.5 °F 74% 29.56 in 10.0 mi SE 8.1 mph 17.3 mph N/A   Mostly Cloudy
2:13 PM 54.0 °F - 46.6 °F 76% 29.56 in 10.0 mi SSE 10.4 mph - N/A Rain Light Rain
2:34 PM 54.5 °F - 46.4 °F 74% 29.55 in 10.0 mi SE 10.4 mph 17.3 mph N/A   Overcast
2:54 PM 53.2 °F - 46.2 °F 77% 29.56 in 7.0 mi South 10.4 mph 18.4 mph N/A Rain Heavy Rain
3:14 PM 53.8 °F - 45.7 °F 74% 29.56 in 10.0 mi South 18.4 mph 23.0 mph N/A   Mostly Cloudy
3:34 PM 55.4 °F - 45.0 °F 68% 29.56 in 10.0 mi South 12.7 mph - N/A   Mostly Cloudy
3:53 PM 56.1 °F - 43.3 °F 62% 29.56 in 10.0 mi South 17.3 mph - N/A   Scattered Clouds
4:14 PM 55.0 °F - 41.5 °F 60% 29.56 in 10.0 mi South 19.6 mph 25.3 mph N/A   Clear
4:34 PM 55.4 °F - 41.7 °F 60% 29.56 in 10.0 mi South 12.7 mph 20.7 mph N/A   Scattered Clouds
4:53 PM 54.7 °F - 40.3 °F 58% 29.56 in 10.0 mi South 11.5 mph - N/A   Mostly Cloudy
5:14 PM 54.3 °F - 40.6 °F 60% 29.56 in 10.0 mi South 10.4 mph - N/A   Overcast
5:34 PM 53.8 °F - 41.0 °F 62% 29.57 in 10.0 mi South 9.2 mph - N/A   Overcast
5:53 PM 53.2 °F - 41.2 °F 64% 29.58 in 10.0 mi South 6.9 mph - N/A   Overcast
6:14 PM 52.9 °F - 41.0 °F 64% 29.59 in 10.0 mi Calm Calm - N/A   Overcast
6:34 PM 52.7 °F - 40.6 °F 64% 29.59 in 10.0 mi SSE 3.5 mph - N/A   Overcast
6:53 PM 52.3 °F - 40.8 °F 65% 29.59 in 10.0 mi SSE 4.6 mph - N/A   Overcast
7:14 PM 51.6 °F - 42.1 °F 70% 29.60 in 10.0 mi SSE 12.7 mph 18.4 mph N/A   Overcast
7:34 PM 50.0 °F - 42.6 °F 76% 29.61 in 10.0 mi South 16.1 mph 21.9 mph N/A   Overcast
7:53 PM 48.9 °F - 43.2 °F 80% 29.61 in 10.0 mi SSE 11.5 mph 19.6 mph N/A   Drizzle
8:14 PM 47.7 °F - 44.1 °F 87% 29.61 in 10.0 mi SSE 11.5 mph - N/A Rain Rain
8:34 PM 47.3 °F - 44.8 °F 91% 29.61 in 10.0 mi SSE 8.1 mph - N/A   Drizzle
8:54 PM 46.8 °F - 44.6 °F 92% 29.61 in 10.0 mi SSE 6.9 mph - N/A Rain Rain
9:14 PM 46.6 °F - 44.6 °F 93% 29.61 in 10.0 mi SSE 6.9 mph - N/A Rain Light Rain
9:34 PM 46.4 °F 42.9 °F 44.1 °F 92% 29.61 in 10.0 mi SSE 6.9 mph - N/A Rain Light Rain
9:54 PM 46.0 °F 43.9 °F 44.1 °F 93% 29.60 in 10.0 mi SSE 4.6 mph - N/A Rain Rain
10:14 PM 45.7 °F 43.4 °F 43.9 °F 93% 29.60 in 10.0 mi SSE 4.6 mph - N/A Rain Light Rain
10:34 PM 45.7 °F 44.4 °F 44.1 °F 94% 29.60 in 10.0 mi SE 3.5 mph - N/A Rain Light Rain
10:54 PM 45.7 °F 44.4 °F 44.2 °F 95% 29.60 in 10.0 mi SE 3.5 mph - N/A Rain Rain
11:14 PM 45.5 °F 44.2 °F 44.2 °F 95% 29.59 in 10.0 mi SE 3.5 mph - N/A Rain Light Rain
11:33 PM 45.5 °F 44.2 °F 44.6 °F 97% 29.59 in 7.0 mi SE 3.5 mph - N/A Rain Rain
11:53 PM 45.5 °F - 44.8 °F 97% 29.59 in 7.0 mi Calm Calm - N/A Rain Light Rain